createdAt,value
2023-03-03T00:00:00.346Z,97.22
2023-03-03T00:05:45.681Z,97.81
2023-03-03T00:10:50.215Z,98.24
2023-03-03T00:15:55.318Z,98.13
2023-03-03T00:21:03.586Z,98.15
2023-03-03T00:26:19.782Z,98.53
2023-03-03T00:31:31.942Z,98.58
2023-03-03T00:36:38.423Z,98.75
2023-03-03T00:41:42.953Z,98.93
2023-03-03T00:46:47.555Z,99.18
2023-03-03T00:51:52.504Z,99.50
2023-03-03T00:56:56.786Z,99.05
2023-03-03T01:02:01.075Z,98.91
2023-03-03T01:07:04.741Z,99.30
2023-03-03T01:12:08.594Z,99.38
2023-03-03T01:17:14.339Z,99.30
2023-03-03T01:22:18.065Z,99.58
2023-03-03T01:27:22.618Z,99.65
2023-03-03T01:32:26.862Z,99.79
2023-03-03T01:37:33.611Z,99.77
2023-03-03T01:42:37.319Z,99.74
2023-03-03T01:47:45.482Z,99.82
2023-03-03T01:52:50.987Z,99.78
2023-03-03T01:58:28.306Z,99.87
2023-03-03T02:03:34.195Z,99.76
2023-03-03T02:08:46.024Z,99.86
2023-03-03T02:13:49.729Z,99.97
2023-03-03T02:18:53.824Z,99.84
2023-03-03T02:24:28.822Z,100.00
2023-03-03T02:29:32.965Z,99.84
2023-03-03T02:34:53.715Z,99.94
2023-03-03T02:39:57.555Z,100.00
2023-03-03T02:45:01.654Z,99.99
2023-03-03T02:50:06.964Z,100.00
2023-03-03T02:55:11.166Z,100.00
2023-03-03T03:00:17.056Z,100.00
2023-03-03T03:05:21.729Z,100.00
2023-03-03T03:10:25.798Z,100.00
2023-03-03T03:15:30.209Z,100.00
2023-03-03T03:20:43.185Z,100.00
2023-03-03T03:25:47.224Z,100.00
2023-03-03T03:30:57.859Z,100.00
2023-03-03T03:36:03.929Z,100.00
2023-03-03T03:41:08.539Z,100.00
2023-03-03T03:46:14.441Z,100.00
2023-03-03T03:51:18.539Z,100.00
2023-03-03T03:56:22.814Z,100.00
2023-03-03T04:01:28.589Z,100.00
2023-03-03T04:06:36.877Z,100.00
2023-03-03T04:11:41.745Z,100.00
2023-03-03T04:16:46.940Z,100.00
2023-03-03T04:21:52.682Z,100.00
2023-03-03T04:26:56.566Z,100.00
2023-03-03T04:32:00.593Z,100.00
2023-03-03T04:37:04.982Z,100.00
2023-03-03T04:42:09.402Z,100.00
2023-03-03T04:47:13.654Z,100.00
2023-03-03T04:52:18.167Z,100.00
2023-03-03T04:57:23.587Z,100.00
2023-03-03T05:02:30.573Z,100.00
2023-03-03T05:07:37.535Z,100.00
2023-03-03T05:12:41.220Z,100.00
2023-03-03T05:17:47.109Z,100.00
2023-03-03T05:22:52.601Z,100.00
2023-03-03T05:27:56.935Z,100.00
2023-03-03T05:33:00.999Z,100.00
2023-03-03T05:38:05.559Z,100.00
2023-03-03T05:43:09.385Z,100.00
2023-03-03T05:48:13.084Z,100.00
2023-03-03T05:53:16.960Z,100.00
2023-03-03T05:58:20.693Z,100.00
2023-03-03T06:03:24.373Z,100.00
2023-03-03T06:08:29.733Z,100.00
2023-03-03T06:13:33.725Z,100.00
2023-03-03T06:18:38.498Z,100.00
2023-03-03T06:23:42.255Z,100.00
2023-03-03T06:28:46.068Z,100.00
2023-03-03T06:33:49.691Z,100.00
2023-03-03T06:38:53.631Z,100.00
2023-03-03T06:43:58.759Z,100.00
2023-03-03T06:49:02.451Z,100.00
2023-03-03T06:54:18.766Z,100.00
2023-03-03T06:59:22.822Z,100.00
2023-03-03T07:04:32.014Z,100.00
2023-03-03T07:09:35.907Z,100.00
2023-03-03T07:14:48.063Z,100.00
2023-03-03T07:19:52.868Z,100.00
2023-03-03T07:25:03.226Z,100.00
2023-03-03T07:30:25.798Z,100.00
2023-03-03T07:35:41.809Z,100.00
2023-03-03T07:40:52.040Z,100.00
2023-03-03T07:46:11.242Z,100.00
2023-03-03T07:51:42.307Z,100.00
2023-03-03T07:56:47.350Z,100.00
2023-03-03T08:01:55.540Z,100.00
2023-03-03T08:07:02.716Z,100.00
2023-03-03T08:12:25.562Z,100.00
2023-03-03T08:17:37.365Z,100.00
2023-03-03T08:22:41.627Z,100.00
2023-03-03T08:27:45.483Z,100.00
2023-03-03T08:32:49.645Z,100.00
2023-03-03T08:37:53.423Z,100.00
2023-03-03T08:42:58.813Z,100.00
2023-03-03T08:48:05.622Z,100.00
2023-03-03T08:53:11.492Z,100.00
2023-03-03T08:58:16.957Z,100.00
2023-03-03T09:03:21.357Z,100.00
2023-03-03T09:08:25.839Z,100.00
2023-03-03T09:13:31.844Z,100.00
2023-03-03T09:18:38.314Z,100.00
2023-03-03T09:23:54.631Z,100.00
2023-03-03T09:29:10.888Z,100.00
2023-03-03T09:34:44.857Z,100.00
2023-03-03T09:39:55.084Z,100.00
2023-03-03T09:45:20.559Z,100.00
2023-03-03T09:50:46.216Z,100.00
2023-03-03T09:56:16.987Z,100.00
2023-03-03T10:01:33.857Z,100.00
2023-03-03T10:06:55.594Z,100.00
2023-03-03T10:12:22.932Z,100.00
2023-03-03T10:17:33.340Z,100.00
2023-03-03T10:23:03.188Z,100.00
2023-03-03T10:28:33.900Z,100.00
2023-03-03T10:34:04.900Z,100.00
2023-03-03T10:39:21.306Z,100.00
2023-03-03T10:44:49.344Z,100.00
2023-03-03T10:50:18.227Z,100.00
2023-03-03T10:55:45.509Z,100.00
2023-03-03T11:00:57.257Z,100.00
2023-03-03T11:06:24.763Z,100.00
2023-03-03T11:12:00.835Z,100.00
2023-03-03T11:17:11.466Z,100.00
2023-03-03T11:22:35.246Z,100.00
2023-03-03T11:28:04.097Z,100.00
2023-03-03T11:33:13.014Z,100.00
2023-03-03T11:38:32.900Z,100.00
2023-03-03T11:43:50.833Z,100.00
2023-03-03T11:55:31.214Z,100.00
2023-03-03T12:00:36.509Z,100.00
2023-03-03T12:06:25.791Z,100.00
2023-03-03T12:11:49.031Z,100.00
2023-03-03T12:16:58.868Z,100.00
2023-03-03T12:22:12.492Z,100.00
2023-03-03T12:27:57.865Z,100.00
2023-03-03T12:33:54.438Z,100.00
2023-03-03T12:39:34.995Z,100.00
2023-03-03T12:44:51.839Z,100.00
2023-03-03T12:50:07.422Z,100.00
2023-03-03T12:56:10.597Z,100.00
2023-03-03T13:01:28.686Z,100.00
2023-03-03T13:06:38.026Z,100.00
2023-03-03T13:12:09.493Z,100.00
2023-03-03T13:17:35.895Z,99.92
2023-03-03T13:23:01.075Z,99.93
2023-03-03T13:28:31.728Z,100.00
2023-03-03T13:33:36.477Z,100.00
2023-03-03T13:38:48.527Z,100.00
2023-03-03T13:44:11.979Z,99.90
2023-03-03T13:49:21.716Z,99.87
2023-03-03T13:54:49.720Z,99.67
2023-03-03T14:00:13.689Z,99.76
2023-03-03T14:05:45.479Z,99.74
2023-03-03T14:11:15.224Z,99.78
2023-03-03T14:16:55.862Z,99.97
2023-03-03T14:22:15.185Z,98.58
2023-03-03T14:27:27.861Z,98.80
2023-03-03T14:32:45.185Z,99.24
2023-03-03T14:37:51.049Z,99.55
2023-03-03T14:42:57.142Z,98.47
2023-03-03T14:48:11.388Z,98.65
2023-03-03T14:53:24.254Z,98.80
2023-03-03T14:58:45.184Z,99.20
2023-03-03T15:04:04.220Z,99.32
2023-03-03T15:09:37.492Z,99.52
2023-03-03T15:14:50.557Z,99.67
2023-03-03T15:19:58.323Z,99.21
2023-03-03T15:25:24.141Z,99.37
2023-03-03T15:30:37.036Z,99.19
2023-03-03T15:36:00.775Z,99.06
2023-03-03T15:41:09.590Z,99.54
2023-03-03T15:46:24.693Z,99.61
2023-03-03T15:51:37.655Z,99.91
2023-03-03T15:56:53.352Z,99.99
2023-03-03T16:02:24.617Z,100.00
2023-03-03T16:07:42.443Z,100.00
2023-03-03T16:13:36.639Z,100.00
2023-03-03T16:19:14.254Z,100.00
2023-03-03T16:25:11.652Z,100.00
2023-03-03T16:30:43.096Z,100.00
2023-03-03T16:36:21.186Z,100.00
2023-03-03T16:41:49.283Z,100.00
2023-03-03T16:47:28.193Z,100.00
2023-03-03T16:52:50.509Z,100.00
2023-03-03T16:58:01.548Z,100.00
2023-03-03T17:03:52.313Z,100.00
2023-03-03T17:09:32.594Z,100.00
2023-03-03T17:14:39.362Z,100.00
2023-03-03T17:19:50.821Z,100.00
2023-03-03T17:25:19.078Z,100.00
2023-03-03T17:30:52.585Z,100.00
2023-03-03T17:42:46.013Z,100.00
2023-03-03T17:47:57.751Z,100.00
2023-03-03T17:53:03.830Z,100.00
2023-03-03T17:58:28.865Z,100.00
2023-03-03T18:04:10.307Z,100.00
2023-03-03T18:09:33.421Z,100.00
2023-03-03T18:15:08.932Z,100.00
2023-03-03T18:20:43.882Z,100.00
2023-03-03T18:26:05.014Z,100.00
2023-03-03T18:31:26.710Z,100.00
2023-03-03T18:36:33.247Z,100.00
2023-03-03T18:42:19.473Z,100.00
2023-03-03T18:48:08.121Z,100.00
2023-03-03T18:53:34.745Z,100.00
2023-03-03T18:58:42.201Z,100.00
2023-03-03T19:03:48.115Z,100.00
2023-03-03T19:08:57.891Z,100.00
2023-03-03T19:14:26.952Z,100.00
2023-03-03T19:19:35.332Z,100.00
2023-03-03T19:24:41.405Z,100.00
2023-03-03T19:29:47.391Z,100.00
2023-03-03T19:35:10.443Z,100.00
2023-03-03T19:40:34.144Z,100.00
2023-03-03T19:46:04.053Z,100.00
2023-03-03T19:51:29.676Z,100.00
2023-03-03T19:56:56.813Z,100.00
2023-03-03T20:02:34.289Z,100.00
2023-03-03T20:07:46.666Z,100.00
2023-03-03T20:13:08.497Z,100.00
2023-03-03T20:18:45.600Z,100.00
2023-03-03T20:24:07.263Z,100.00
2023-03-03T20:29:22.939Z,100.00
2023-03-03T20:35:06.394Z,100.00
2023-03-03T20:40:28.401Z,100.00
2023-03-03T20:45:34.077Z,100.00
2023-03-03T20:51:03.596Z,100.00
2023-03-03T20:56:23.776Z,100.00
2023-03-03T21:01:37.577Z,100.00
2023-03-03T21:06:43.167Z,100.00
2023-03-03T21:11:50.286Z,100.00
2023-03-03T21:17:07.503Z,100.00
2023-03-03T21:22:14.257Z,100.00
2023-03-03T21:27:27.798Z,100.00
2023-03-03T21:32:48.505Z,100.00
2023-03-03T21:37:55.324Z,100.00
2023-03-03T21:43:00.228Z,100.00
2023-03-03T21:48:05.995Z,100.00
2023-03-03T21:53:11.780Z,100.00
2023-03-03T21:58:16.968Z,100.00
2023-03-03T22:03:21.218Z,100.00
2023-03-03T22:08:25.549Z,100.00
2023-03-03T22:13:29.846Z,100.00
2023-03-03T22:18:34.124Z,100.00
2023-03-03T22:23:38.002Z,100.00
2023-03-03T22:28:44.243Z,100.00
2023-03-03T22:33:49.064Z,100.00
2023-03-03T22:38:53.566Z,100.00
2023-03-03T22:43:57.436Z,100.00
2023-03-03T22:49:01.386Z,100.00
2023-03-03T22:54:05.715Z,100.00
2023-03-03T22:59:10.463Z,100.00
2023-03-03T23:04:14.624Z,100.00
2023-03-03T23:09:18.345Z,100.00
2023-03-03T23:14:24.319Z,100.00
2023-03-03T23:19:28.582Z,100.00
2023-03-03T23:24:33.505Z,100.00
2023-03-03T23:29:38.292Z,100.00
2023-03-03T23:34:42.761Z,100.00
2023-03-03T23:39:46.734Z,100.00
2023-03-03T23:44:51.204Z,100.00
2023-03-03T23:49:56.448Z,100.00
2023-03-03T23:55:00.978Z,100.00
